Time;durP1;ratioP1;P1;durP2;ratioP2;P2;SDS_P1;SDS_P2;PMS_P1;PMS_P2;Temp;Humidity;BMP_temperature;BMP_pressure;BME280_temperature;BME280_humidity;BME280_pressure;Samples;Min_cycle;Max_cycle;Signal;HPM_P1;HPM_P2
2021/06/21 00:00:53;;;;;;;8.03;7.40;;;21.20;99.90;;;;;;5089761;28;20422;-38
2021/06/21 00:03:19;;;;;;;7.70;7.00;;;21.20;99.90;;;;;;5072202;28;20215;-38
2021/06/21 00:05:44;;;;;;;8.53;7.73;;;21.20;99.90;;;;;;5071225;28;20180;-38
2021/06/21 00:08:10;;;;;;;8.37;7.70;;;21.20;99.90;;;;;;5082424;28;20196;-39
2021/06/21 00:10:36;;;;;;;8.03;7.33;;;21.10;99.90;;;;;;5085167;28;20238;-38
2021/06/21 00:13:01;;;;;;;9.17;8.40;;;21.10;99.90;;;;;;5090148;28;20203;-38
2021/06/21 00:15:28;;;;;;;8.20;7.50;;;21.10;99.90;;;;;;5089841;28;20255;-38
2021/06/21 00:17:54;;;;;;;8.60;7.90;;;21.10;99.90;;;;;;5089971;28;20216;-38
2021/06/21 00:20:21;;;;;;;9.10;8.40;;;21.00;99.90;;;;;;5088757;28;20410;-38
2021/06/21 00:22:47;;;;;;;9.60;8.60;;;21.00;99.90;;;;;;5084317;28;20462;-38
2021/06/21 00:25:14;;;;;;;9.43;8.60;;;21.00;99.90;;;;;;5067201;28;20423;-38
2021/06/21 00:27:40;;;;;;;10.07;9.23;;;21.00;99.90;;;;;;5090193;28;20426;-38
2021/06/21 00:30:10;;;;;;;11.53;10.43;;;21.00;99.90;;;;;;5047032;28;20925;-38
2021/06/21 00:32:37;;;;;;;11.87;10.67;;;20.90;99.90;;;;;;5081024;28;20431;-38
2021/06/21 00:35:03;;;;;;;9.90;9.10;;;20.90;99.90;;;;;;5089271;28;20450;-39
2021/06/21 00:37:29;;;;;;;11.40;10.30;;;20.80;99.90;;;;;;5060775;28;20956;-38
2021/06/21 00:39:54;;;;;;;10.97;9.97;;;20.90;99.90;;;;;;5082758;28;20419;-38
2021/06/21 00:42:20;;;;;;;11.63;10.63;;;20.80;99.90;;;;;;5088077;28;20291;-39
2021/06/21 00:44:46;;;;;;;11.90;10.80;;;20.80;99.90;;;;;;5089335;28;20208;-38
2021/06/21 00:47:13;;;;;;;10.93;10.03;;;20.80;99.90;;;;;;5089446;28;20449;-38
2021/06/21 00:49:40;;;;;;;11.27;10.27;;;20.80;99.90;;;;;;5088601;28;20241;-38
2021/06/21 00:52:10;;;;;;;12.47;11.27;;;20.80;99.90;;;;;;5061218;28;20534;-38
2021/06/21 00:54:37;;;;;;;12.57;11.50;;;20.80;99.90;;;;;;5088545;28;20425;-39
2021/06/21 00:57:03;;;;;;;11.20;10.10;;;20.80;99.90;;;;;;5085446;28;20784;-38
2021/06/21 00:59:28;;;;;;;13.20;12.07;;;20.70;99.90;;;;;;5070697;28;20441;-38
2021/06/21 01:01:54;;;;;;;13.00;11.53;;;20.70;99.90;;;;;;5089090;28;20462;-38
2021/06/21 01:04:20;;;;;;;12.87;11.77;;;20.60;99.90;;;;;;5089034;28;20499;-38
2021/06/21 01:06:45;;;;;;;14.43;13.03;;;20.60;99.90;;;;;;5084142;28;20197;-38
2021/06/21 01:09:11;;;;;;;12.60;11.50;;;20.50;99.90;;;;;;5067058;28;20303;-38
2021/06/21 01:11:55;;;;;;;13.03;11.93;;;20.50;99.90;;;;;;5070641;28;20210;-38
2021/06/21 01:14:30;;;;;;;13.03;11.80;;;20.50;99.90;;;;;;5076805;28;20180;-38
2021/06/21 01:17:16;;;;;;;12.43;11.30;;;20.50;99.90;;;;;;5088829;28;20421;-38
2021/06/21 01:19:54;;;;;;;12.43;11.33;;;20.50;99.90;;;;;;5088441;28;20421;-38
2021/06/21 01:22:32;;;;;;;12.67;11.47;;;20.50;99.90;;;;;;5080749;28;20860;-38
2021/06/21 01:25:21;;;;;;;12.10;11.10;;;20.50;99.90;;;;;;5087571;28;20872;-39
2021/06/21 01:27:57;;;;;;;12.17;11.00;;;20.50;99.90;;;;;;5088755;28;20510;-38
2021/06/21 01:30:54;;;;;;;12.50;11.47;;;20.40;99.90;;;;;;5088133;28;20499;-38
2021/06/21 01:33:21;;;;;;;12.07;11.00;;;20.40;99.90;;;;;;5070466;28;20487;-38
2021/06/21 01:35:53;;;;;;;12.90;11.80;;;20.40;99.90;;;;;;5089349;28;20430;-38
2021/06/21 01:38:33;;;;;;;12.87;11.57;;;20.40;99.90;;;;;;5056103;28;21138;-38
2021/06/21 01:41:03;;;;;;;15.03;13.60;;;20.50;99.90;;;;;;5076551;28;20418;-38
2021/06/21 01:43:44;;;;;;;13.73;12.43;;;20.50;99.90;;;;;;5074516;28;20460;-38
2021/06/21 01:46:13;;;;;;;13.50;12.40;;;20.40;99.90;;;;;;5088429;28;20422;-38
2021/06/21 01:48:45;;;;;;;14.70;13.40;;;20.30;99.90;;;;;;5087696;28;20784;-38
2021/06/21 01:51:13;;;;;;;13.23;12.07;;;20.30;99.90;;;;;;5088133;28;20842;-38
2021/06/21 01:53:39;;;;;;;13.07;11.97;;;20.20;99.90;;;;;;5084124;28;20466;-38
2021/06/21 01:56:11;;;;;;;14.00;12.80;;;20.20;99.90;;;;;;5084056;28;20715;-38
2021/06/21 01:58:38;;;;;;;14.80;13.57;;;20.20;99.90;;;;;;5087654;28;20418;-38
2021/06/21 02:01:17;;;;;;;15.10;13.60;;;20.10;99.90;;;;;;5088106;28;20824;-38
2021/06/21 02:03:52;;;;;;;14.97;13.70;;;20.10;99.90;;;;;;5088100;28;20414;-38
2021/06/21 02:06:19;;;;;;;14.63;13.40;;;20.10;99.90;;;;;;5087931;28;20468;-39
2021/06/21 02:08:48;;;;;;;13.10;12.00;;;20.10;99.90;;;;;;5078034;28;20425;-38
2021/06/21 02:11:15;;;;;;;13.87;12.67;;;20.20;99.90;;;;;;5083711;28;20420;-38
2021/06/21 02:13:43;;;;;;;13.13;11.83;;;20.20;99.90;;;;;;5083091;28;20580;-38
2021/06/21 02:16:10;;;;;;;14.40;13.10;;;20.20;99.90;;;;;;5087958;28;20398;-38
2021/06/21 02:18:36;;;;;;;14.33;13.20;;;20.30;99.90;;;;;;5086988;28;20771;-38
2021/06/21 02:21:03;;;;;;;14.80;13.50;;;20.30;99.90;;;;;;5087358;28;20410;-39
2021/06/21 02:23:29;;;;;;;16.47;14.87;;;20.30;99.90;;;;;;5082364;28;21084;-38
2021/06/21 02:25:59;;;;;;;15.33;14.03;;;20.30;99.90;;;;;;5082433;28;20426;-38
2021/06/21 02:28:27;;;;;;;17.57;15.87;;;20.30;99.90;;;;;;5084467;28;20422;-38
2021/06/21 02:30:54;;;;;;;17.70;16.17;;;20.40;99.90;;;;;;5068986;28;20446;-39
2021/06/21 02:33:20;;;;;;;18.57;17.07;;;20.30;99.90;;;;;;5087243;28;20445;-39
2021/06/21 02:35:47;;;;;;;18.40;16.87;;;20.20;99.90;;;;;;5068932;28;20510;-38
2021/06/21 02:38:14;;;;;;;19.97;18.27;;;20.20;99.90;;;;;;5082570;28;20277;-38
2021/06/21 02:40:40;;;;;;;20.10;18.30;;;20.20;99.90;;;;;;5063333;28;20541;-38
2021/06/21 02:43:06;;;;;;;18.60;16.70;;;20.00;99.90;;;;;;5086533;28;20458;-38
2021/06/21 02:45:33;;;;;;;20.20;18.23;;;20.00;99.90;;;;;;5087603;28;20417;-38
2021/06/21 02:48:03;;;;;;;19.13;17.53;;;20.00;99.90;;;;;;5086938;28;20192;-38
2021/06/21 02:50:29;;;;;;;23.13;20.73;;;20.00;99.90;;;;;;5086525;28;20446;-38
2021/06/21 02:53:29;;;;;;;22.70;20.60;;;20.00;99.90;;;;;;5081430;28;20830;-38
2021/06/21 02:56:21;;;;;;;22.70;20.50;;;20.00;99.90;;;;;;5080692;28;20881;-38
2021/06/21 02:58:48;;;;;;;23.40;21.20;;;20.00;99.90;;;;;;5079674;28;20471;-38
2021/06/21 03:01:16;;;;;;;22.43;20.50;;;20.00;99.90;;;;;;5086727;28;20415;-39
2021/06/21 03:03:50;;;;;;;23.37;21.27;;;20.00;99.90;;;;;;5086701;28;20410;-39
2021/06/21 03:06:18;;;;;;;26.13;23.63;;;20.00;99.90;;;;;;5087157;28;20777;-38
2021/06/21 03:08:44;;;;;;;23.33;21.27;;;20.10;99.90;;;;;;5075886;28;20529;-38
2021/06/21 03:11:13;;;;;;;23.20;21.13;;;20.00;99.90;;;;;;5086309;28;20970;-38
2021/06/21 03:13:39;;;;;;;22.10;20.10;;;20.00;99.90;;;;;;5081785;28;20410;-38
2021/06/21 03:16:06;;;;;;;23.83;21.33;;;19.90;99.90;;;;;;5086711;28;20407;-38
2021/06/21 03:18:34;;;;;;;24.53;22.03;;;19.90;99.90;;;;;;5086161;28;20787;-38
2021/06/21 03:21:00;;;;;;;23.37;21.10;;;19.80;99.90;;;;;;5086667;28;20437;-38
2021/06/21 03:23:28;;;;;;;20.53;18.77;;;19.70;99.90;;;;;;5078327;28;20821;-38
2021/06/21 03:25:56;;;;;;;20.10;18.37;;;19.80;99.90;;;;;;5067424;28;20419;-38
2021/06/21 03:28:23;;;;;;;18.53;16.90;;;19.80;99.90;;;;;;5085149;28;20678;-38
2021/06/21 03:30:55;;;;;;;14.30;13.10;;;19.70;99.90;;;;;;5085084;28;20422;-38
2021/06/21 03:33:21;;;;;;;18.63;16.70;;;19.80;99.90;;;;;;5086063;28;20422;-38
2021/06/21 03:35:47;;;;;;;16.87;15.27;;;19.60;99.90;;;;;;5086577;28;20418;-38
2021/06/21 03:38:22;;;;;;;14.30;13.00;;;19.60;99.90;;;;;;5063513;28;20444;-38
2021/06/21 03:40:49;;;;;;;12.30;11.20;;;19.60;99.90;;;;;;5077771;28;20417;-38
2021/06/21 03:43:17;;;;;;;11.60;10.60;;;19.60;99.90;;;;;;5086133;28;20457;-38
2021/06/21 03:45:44;;;;;;;12.30;11.30;;;19.60;99.90;;;;;;5086351;28;20838;-38
2021/06/21 03:48:10;;;;;;;13.17;12.07;;;19.60;99.90;;;;;;5086588;28;20447;-38
2021/06/21 03:50:36;;;;;;;14.30;13.10;;;19.70;99.90;;;;;;5085493;28;20428;-38
2021/06/21 03:53:03;;;;;;;16.50;15.00;;;19.70;99.90;;;;;;5079872;28;20492;-39
2021/06/21 03:55:29;;;;;;;20.00;18.30;;;19.70;99.90;;;;;;5076211;28;20416;-38
2021/06/21 03:57:55;;;;;;;20.17;18.40;;;19.70;99.90;;;;;;5086142;28;20480;-38
2021/06/21 04:00:26;;;;;;;21.10;19.30;;;19.80;99.90;;;;;;5067464;28;20192;-38
2021/06/21 04:02:52;;;;;;;20.93;19.07;;;19.70;99.90;;;;;;5086172;28;20906;-38
2021/06/21 04:05:19;;;;;;;20.80;19.00;;;19.80;99.90;;;;;;5085820;28;20452;-39
2021/06/21 04:07:45;;;;;;;19.97;18.17;;;19.80;99.90;;;;;;5084752;28;20444;-38
2021/06/21 04:10:18;;;;;;;19.83;18.13;;;19.80;99.90;;;;;;5078185;28;20976;-38
2021/06/21 04:12:45;;;;;;;21.80;19.90;;;19.80;99.90;;;;;;5076689;28;20471;-38
2021/06/21 04:15:13;;;;;;;20.10;18.40;;;19.80;99.90;;;;;;5085950;28;20437;-39
2021/06/21 04:17:39;;;;;;;19.83;18.03;;;19.80;99.90;;;;;;5086549;28;20453;-38
2021/06/21 04:20:26;;;;;;;20.27;17.37;;;19.70;99.90;;;;;;5085319;28;20929;-38
2021/06/21 04:22:52;;;;;;;19.53;17.60;;;19.70;99.90;;;;;;5085028;28;20476;-38
2021/06/21 04:25:19;;;;;;;18.10;16.50;;;19.70;99.90;;;;;;5077516;28;20415;-38
2021/06/21 04:27:45;;;;;;;16.33;15.03;;;19.70;99.90;;;;;;5083163;28;20464;-38
2021/06/21 04:30:13;;;;;;;15.97;14.67;;;19.70;99.90;;;;;;5085788;28;20414;-38
2021/06/21 04:32:40;;;;;;;16.10;14.80;;;19.70;99.90;;;;;;5085627;28;20430;-38
2021/06/21 04:35:09;;;;;;;15.87;14.47;;;19.70;99.90;;;;;;5086055;28;20426;-38
2021/06/21 04:37:35;;;;;;;15.00;13.60;;;19.60;99.90;;;;;;5084523;28;20426;-38
2021/06/21 04:40:02;;;;;;;15.23;13.80;;;19.60;99.90;;;;;;5073751;28;20434;-38
2021/06/21 04:42:28;;;;;;;15.67;14.37;;;19.50;99.90;;;;;;5082016;28;20208;-38
2021/06/21 04:44:54;;;;;;;16.10;14.60;;;19.50;99.90;;;;;;5050393;28;20423;-38
2021/06/21 04:47:24;;;;;;;16.10;14.67;;;19.50;99.90;;;;;;5082205;28;20503;-38
2021/06/21 04:49:52;;;;;;;16.67;15.17;;;19.50;99.90;;;;;;5088814;28;20430;-38
2021/06/21 04:52:19;;;;;;;14.60;13.20;;;19.50;99.90;;;;;;5089307;28;20479;-38
2021/06/21 04:54:48;;;;;;;15.40;14.00;;;19.60;99.90;;;;;;5086425;28;20425;-38
2021/06/21 04:57:13;;;;;;;15.37;14.07;;;19.60;99.90;;;;;;5082605;28;20508;-38
2021/06/21 04:59:39;;;;;;;18.00;16.50;;;19.60;99.90;;;;;;5083917;28;20422;-39
2021/06/21 05:02:04;;;;;;;16.10;14.70;;;19.70;99.90;;;;;;5088948;28;20516;-38
2021/06/21 05:04:30;;;;;;;16.40;14.97;;;19.70;99.90;;;;;;5087685;28;20173;-38
2021/06/21 05:06:56;;;;;;;15.27;13.90;;;19.80;99.90;;;;;;5089138;28;20283;-38
2021/06/21 05:09:22;;;;;;;15.10;13.70;;;19.80;99.90;;;;;;5083713;28;20643;-38
2021/06/21 05:11:47;;;;;;;15.83;14.43;;;19.80;99.90;;;;;;5086506;28;20239;-38
2021/06/21 05:14:13;;;;;;;16.27;14.67;;;19.80;99.90;;;;;;5057080;28;20185;-38
2021/06/21 05:16:39;;;;;;;17.63;15.90;;;19.80;99.90;;;;;;5088921;28;20184;-38
2021/06/21 05:19:06;;;;;;;17.13;15.50;;;19.80;99.90;;;;;;5088227;28;20196;-38
2021/06/21 05:21:33;;;;;;;17.60;16.00;;;19.90;99.90;;;;;;5089083;28;20220;-38
2021/06/21 05:23:59;;;;;;;16.53;14.97;;;19.90;99.90;;;;;;5082304;28;20796;-39
2021/06/21 05:26:24;;;;;;;15.57;14.27;;;19.90;99.90;;;;;;5085820;28;20414;-38
2021/06/21 05:28:50;;;;;;;15.63;14.17;;;19.90;99.90;;;;;;5079794;28;20414;-38
2021/06/21 05:31:16;;;;;;;13.00;11.90;;;19.90;99.90;;;;;;5070656;28;20646;-38
2021/06/21 05:33:43;;;;;;;11.60;10.70;;;20.00;99.90;;;;;;5088911;28;20587;-38
2021/06/21 05:36:09;;;;;;;11.97;10.20;;;20.00;99.90;;;;;;5088470;28;20271;-39
2021/06/21 05:38:35;;;;;;;11.70;9.60;;;20.10;99.90;;;;;;5064459;28;20430;-38
2021/06/21 05:41:01;;;;;;;10.70;8.83;;;20.20;99.90;;;;;;5081606;28;20434;-38
2021/06/21 05:43:26;;;;;;;10.83;9.83;;;20.20;99.90;;;;;;5087017;28;20212;-38
2021/06/21 05:45:53;;;;;;;10.83;8.73;;;20.20;99.90;;;;;;5088380;28;20184;-38
2021/06/21 05:48:19;;;;;;;10.03;8.87;;;20.20;99.90;;;;;;5088018;28;20181;-38
2021/06/21 05:50:45;;;;;;;13.47;8.73;;;20.30;99.90;;;;;;5087376;28;20426;-38
2021/06/21 05:53:11;;;;;;;9.23;7.53;;;20.30;99.90;;;;;;5086884;28;20219;-38
2021/06/21 05:55:36;;;;;;;7.60;6.43;;;20.30;99.90;;;;;;5082566;28;20442;-38
2021/06/21 05:58:02;;;;;;;6.83;6.20;;;20.40;99.90;;;;;;5087874;28;20196;-38
2021/06/21 06:00:28;;;;;;;9.67;5.67;;;20.40;99.90;;;;;;5065237;28;20177;-38
2021/06/21 06:02:53;;;;;;;8.73;5.30;;;20.50;99.90;;;;;;5083717;28;20273;-38
2021/06/21 06:05:20;;;;;;;5.60;5.00;;;20.50;99.90;;;;;;5071208;28;20185;-38
2021/06/21 06:07:46;;;;;;;5.53;4.50;;;20.50;99.90;;;;;;5086351;28;20551;-38
2021/06/21 06:10:13;;;;;;;8.30;4.80;;;20.50;99.90;;;;;;5063753;28;20506;-38
2021/06/21 06:12:40;;;;;;;8.80;4.23;;;20.50;99.90;;;;;;5085267;28;20498;-38
2021/06/21 06:15:06;;;;;;;10.33;3.63;;;20.50;99.90;;;;;;5086868;28;20426;-38
2021/06/21 06:17:32;;;;;;;9.03;4.50;;;20.60;99.90;;;;;;5086212;28;20427;-38
2021/06/21 06:19:58;;;;;;;8.13;3.90;;;20.90;99.90;;;;;;5065343;28;20796;-38
2021/06/21 06:22:25;;;;;;;7.20;3.33;;;21.10;99.90;;;;;;5081888;28;20709;-38
2021/06/21 06:24:50;;;;;;;8.30;3.70;;;21.20;99.90;;;;;;5061770;28;20442;-38
2021/06/21 06:27:16;;;;;;;5.00;3.27;;;21.30;99.90;;;;;;5084322;28;20897;-38
2021/06/21 06:29:42;;;;;;;5.60;3.60;;;21.30;99.90;;;;;;5085062;28;20185;-38
2021/06/21 06:32:08;;;;;;;8.93;4.13;;;21.30;99.90;;;;;;5082788;28;20185;-38
2021/06/21 06:34:34;;;;;;;7.20;3.50;;;21.20;99.90;;;;;;5087069;28;20414;-38
2021/06/21 06:37:00;;;;;;;6.60;3.13;;;21.20;99.90;;;;;;5085264;28;20408;-38
2021/06/21 06:39:26;;;;;;;5.90;3.93;;;21.20;99.90;;;;;;5085233;28;20434;-38
2021/06/21 06:41:52;;;;;;;8.97;3.60;;;21.20;99.90;;;;;;5086315;28;20867;-38
2021/06/21 06:44:18;;;;;;;5.60;3.30;;;21.20;99.90;;;;;;5086597;28;20411;-38
2021/06/21 06:46:44;;;;;;;8.20;3.43;;;21.20;99.90;;;;;;5069381;28;20904;-38
2021/06/21 06:49:11;;;;;;;5.90;2.97;;;21.10;99.90;;;;;;5086503;28;20430;-38
2021/06/21 06:51:49;;;;;;;6.20;3.70;;;21.10;99.90;;;;;;5087434;28;20662;-38
2021/06/21 06:56:59;;;;;;;9.30;3.60;;;21.00;99.90;;;;;;5080092;28;20418;-38
2021/06/21 06:59:33;;;;;;;4.97;3.20;;;21.00;99.90;;;;;;5082674;28;20211;-38
2021/06/21 07:02:01;;;;;;;8.13;3.10;;;21.00;99.90;;;;;;5087035;28;20443;-38
2021/06/21 07:04:30;;;;;;;5.60;3.10;;;21.00;99.90;;;;;;5086459;28;20491;-38
2021/06/21 07:06:59;;;;;;;5.60;3.50;;;21.00;99.90;;;;;;5086085;28;20909;-38
2021/06/21 07:09:26;;;;;;;5.67;3.40;;;21.00;99.90;;;;;;5081193;28;20430;-38
2021/06/21 07:11:53;;;;;;;5.50;3.10;;;21.10;99.90;;;;;;5082607;28;20418;-39
2021/06/21 07:14:19;;;;;;;8.00;3.60;;;21.10;99.90;;;;;;5081675;28;20418;-38
2021/06/21 07:16:48;;;;;;;8.47;3.70;;;21.10;99.90;;;;;;5085406;28;20410;-38
2021/06/21 07:19:15;;;;;;;6.30;3.10;;;21.10;99.90;;;;;;5066989;28;20416;-38
2021/06/21 07:21:41;;;;;;;8.40;4.00;;;21.10;99.90;;;;;;5081647;28;20482;-38
2021/06/21 07:24:08;;;;;;;5.30;3.50;;;21.10;99.90;;;;;;5086199;28;20513;-38
2021/06/21 07:26:34;;;;;;;8.37;3.50;;;21.10;99.90;;;;;;5081006;28;20420;-37
2021/06/21 07:29:00;;;;;;;5.83;3.07;;;21.20;99.90;;;;;;5085147;28;20744;-38
2021/06/21 07:31:26;;;;;;;4.83;3.80;;;21.20;99.90;;;;;;5068216;28;20476;-38
2021/06/21 07:33:52;;;;;;;5.20;2.53;;;21.20;99.90;;;;;;5068251;28;20180;-39
2021/06/21 07:36:18;;;;;;;4.40;3.10;;;21.20;99.90;;;;;;5068421;28;20188;-38
2021/06/21 07:38:44;;;;;;;4.30;3.27;;;21.20;99.90;;;;;;5068462;28;20184;-38
2021/06/21 07:41:10;;;;;;;5.03;3.03;;;21.20;99.90;;;;;;5082470;28;20460;-38
2021/06/21 07:43:35;;;;;;;4.93;3.37;;;21.10;99.90;;;;;;5083948;28;20291;-39
2021/06/21 07:46:03;;;;;;;5.17;3.40;;;21.20;99.90;;;;;;5086177;28;20415;-38
2021/06/21 07:48:29;;;;;;;3.67;3.13;;;21.10;99.90;;;;;;5086253;28;20181;-38
2021/06/21 07:50:55;;;;;;;9.03;3.83;;;21.20;99.90;;;;;;5085581;28;20478;-38
2021/06/21 07:53:20;;;;;;;5.07;3.10;;;21.10;99.90;;;;;;5086609;28;20730;-38
2021/06/21 07:55:46;;;;;;;5.73;3.57;;;21.10;99.90;;;;;;5076446;28;20267;-38
2021/06/21 07:58:12;;;;;;;4.63;3.20;;;21.00;99.90;;;;;;5085065;28;20210;-38
2021/06/21 08:00:39;;;;;;;5.70;3.27;;;21.00;99.90;;;;;;5080627;28;20259;-38
2021/06/21 08:03:09;;;;;;;7.70;3.90;;;21.00;99.90;;;;;;5087536;28;20200;-44
2021/06/21 08:05:37;;;;;;;7.77;3.57;;;21.00;99.90;;;;;;5088269;28;20422;-42
2021/06/21 08:08:04;;;;;;;6.30;3.43;;;21.00;99.90;;;;;;5088142;28;20419;-42
2021/06/21 08:10:30;;;;;;;4.80;3.57;;;21.10;99.90;;;;;;5068764;28;20422;-43
2021/06/21 08:12:56;;;;;;;6.20;3.93;;;21.10;99.90;;;;;;5087249;28;20471;-41
2021/06/21 08:15:22;;;;;;;3.40;2.90;;;21.10;99.90;;;;;;5085251;28;20466;-43
2021/06/21 08:17:47;;;;;;;5.13;3.43;;;21.10;99.90;;;;;;5060981;28;20543;-42
2021/06/21 08:20:13;;;;;;;7.13;3.40;;;21.20;99.90;;;;;;5079857;28;20197;-42
2021/06/21 08:22:39;;;;;;;8.23;3.23;;;21.10;99.90;;;;;;5091378;28;20208;-43
2021/06/21 08:25:08;;;;;;;5.60;3.07;;;21.10;99.90;;;;;;5067666;28;20427;-43
2021/06/21 08:27:34;;;;;;;7.47;3.50;;;21.10;99.90;;;;;;5077413;28;20908;-43
2021/06/21 08:30:00;;;;;;;7.60;3.30;;;21.10;99.90;;;;;;5089102;28;20522;-42
2021/06/21 08:32:26;;;;;;;4.20;3.03;;;21.20;99.90;;;;;;5074937;28;20847;-42
2021/06/21 08:34:52;;;;;;;7.73;3.67;;;21.20;99.90;;;;;;5075044;28;20296;-41
2021/06/21 08:37:20;;;;;;;5.90;3.50;;;21.40;99.90;;;;;;5088632;28;20497;-44
2021/06/21 08:39:47;;;;;;;5.30;4.70;;;21.40;99.90;;;;;;5084363;28;20773;-43
2021/06/21 08:42:12;;;;;;;7.93;4.00;;;21.50;99.90;;;;;;5085660;28;20457;-44
2021/06/21 08:44:41;;;;;;;5.87;4.50;;;21.70;99.90;;;;;;5064866;28;20419;-46
2021/06/21 08:47:08;;;;;;;6.20;5.40;;;21.90;99.90;;;;;;5085114;28;20181;-43
2021/06/21 08:49:36;;;;;;;9.13;5.80;;;22.20;99.90;;;;;;5086513;28;20994;-42
2021/06/21 08:52:02;;;;;;;9.33;8.10;;;22.20;99.90;;;;;;5058547;28;20502;-45
2021/06/21 08:54:28;;;;;;;10.30;9.03;;;22.30;99.90;;;;;;5083455;28;20514;-41
2021/06/21 08:56:58;;;;;;;6.80;6.20;;;22.30;99.90;;;;;;5082813;28;21007;-41
2021/06/21 08:59:24;;;;;;;5.63;5.10;;;22.30;99.90;;;;;;5086562;28;20192;-41
2021/06/21 09:01:50;;;;;;;6.20;5.20;;;22.20;99.90;;;;;;5089382;28;20450;-43
2021/06/21 09:04:16;;;;;;;8.60;5.80;;;22.20;99.90;;;;;;5084098;28;20966;-43
2021/06/21 09:06:43;;;;;;;6.37;5.70;;;22.30;99.90;;;;;;5088927;28;20414;-43
2021/06/21 09:09:09;;;;;;;5.40;4.90;;;22.50;99.90;;;;;;5089641;28;20428;-44
2021/06/21 09:11:49;;;;;;;9.07;8.13;;;22.50;99.90;;;;;;5073363;28;20796;-44
2021/06/21 09:14:29;;;;;;;13.07;11.87;;;22.60;99.90;;;;;;5082149;28;20428;-45
2021/06/21 09:16:57;;;;;;;13.27;11.87;;;22.60;99.90;;;;;;5083373;28;20480;-43
2021/06/21 09:19:23;;;;;;;15.20;13.80;;;22.50;99.90;;;;;;5083911;28;20501;-42
2021/06/21 09:21:50;;;;;;;16.80;15.50;;;22.40;99.90;;;;;;5088556;28;20457;-46
2021/06/21 09:24:28;;;;;;;18.70;16.97;;;22.20;99.90;;;;;;5089014;28;21140;-43
2021/06/21 09:26:57;;;;;;;20.10;18.40;;;22.00;99.90;;;;;;5077870;28;20529;-47
2021/06/21 09:29:40;;;;;;;23.27;21.17;;;21.90;99.90;;;;;;5083226;28;20422;-44
2021/06/21 09:32:07;;;;;;;24.20;21.00;;;21.70;99.90;;;;;;5068819;28;20789;-41
2021/06/21 09:34:33;;;;;;;23.97;21.57;;;21.70;99.90;;;;;;5080990;28;20456;-45
2021/06/21 09:37:08;;;;;;;24.33;22.10;;;21.80;99.90;;;;;;5088606;28;20444;-43
2021/06/21 09:39:39;;;;;;;25.43;23.03;;;22.00;99.90;;;;;;5087317;28;20184;-45
2021/06/21 09:42:24;;;;;;;25.60;23.10;;;22.10;99.90;;;;;;5077543;28;20454;-41
2021/06/21 09:44:57;;;;;;;25.43;23.13;;;22.20;99.90;;;;;;5083559;28;20457;-45
2021/06/21 09:47:28;;;;;;;31.13;27.83;;;22.20;99.90;;;;;;5088430;28;20442;-44
2021/06/21 09:50:11;;;;;;;29.53;26.73;;;21.90;99.90;;;;;;5087696;28;20429;-43
2021/06/21 09:52:42;;;;;;;33.00;29.57;;;21.80;99.90;;;;;;5088350;28;20488;-45
2021/06/21 09:55:29;;;;;;;30.73;27.53;;;21.70;99.90;;;;;;5087703;28;20430;-42
2021/06/21 09:58:09;;;;;;;32.17;28.67;;;21.70;99.90;;;;;;5080979;28;20414;-45
2021/06/21 10:00:45;;;;;;;32.07;28.03;;;21.40;99.90;;;;;;5086881;28;20453;-42
2021/06/21 10:03:11;;;;;;;31.90;28.43;;;21.40;99.90;;;;;;5087966;28;20827;-48
2021/06/21 10:05:43;;;;;;;33.90;28.70;;;21.20;99.90;;;;;;5088062;28;20509;-45
2021/06/21 10:08:14;;;;;;;31.13;27.53;;;21.20;99.90;;;;;;5088057;28;20184;-41
2021/06/21 10:10:42;;;;;;;31.40;26.60;;;21.10;99.90;;;;;;5066362;28;20442;-44
2021/06/21 10:13:09;;;;;;;37.73;27.80;;;21.10;99.90;;;;;;5083206;28;20430;-41
2021/06/21 10:15:35;;;;;;;33.10;27.70;;;20.90;99.90;;;;;;5087686;28;20804;-45
2021/06/21 10:18:05;;;;;;;31.80;25.73;;;20.80;99.90;;;;;;5087611;28;20669;-43
2021/06/21 10:20:31;;;;;;;27.73;24.20;;;20.80;99.90;;;;;;5087074;28;20807;-46
2021/06/21 10:22:58;;;;;;;29.60;24.27;;;20.70;99.90;;;;;;5087775;28;20491;-41
2021/06/21 10:25:24;;;;;;;27.27;23.33;;;20.60;99.90;;;;;;5068400;28;20690;-46
2021/06/21 10:27:50;;;;;;;28.07;23.20;;;20.60;99.90;;;;;;5080423;28;20779;-43
2021/06/21 10:30:21;;;;;;;27.97;23.73;;;20.60;99.90;;;;;;5084328;28;20487;-41
2021/06/21 10:32:48;;;;;;;29.63;24.73;;;20.60;99.90;;;;;;5088067;28;20180;-44
2021/06/21 10:35:15;;;;;;;30.60;24.40;;;20.50;99.90;;;;;;5087394;28;20921;-42
2021/06/21 10:38:16;;;;;;;30.17;24.97;;;20.40;99.90;;;;;;5087820;28;20458;-44
2021/06/21 10:40:57;;;;;;;29.97;25.30;;;20.30;99.90;;;;;;5015831;28;20428;-44
2021/06/21 10:43:40;;;;;;;29.03;24.83;;;20.30;99.90;;;;;;5073306;28;20998;-47
2021/06/21 10:46:25;;;;;;;29.40;21.90;;;20.30;99.90;;;;;;5078543;28;20505;-42
2021/06/21 10:48:57;;;;;;;30.83;25.53;;;20.30;99.90;;;;;;5080463;28;20407;-42
2021/06/21 10:51:37;;;;;;;39.07;27.03;;;20.30;99.90;;;;;;5088013;28;20505;-41
2021/06/21 10:54:05;;;;;;;35.73;28.90;;;20.20;99.90;;;;;;5087618;28;20414;-40
2021/06/21 10:56:44;;;;;;;37.30;31.23;;;20.10;99.90;;;;;;5080977;28;20473;-41
2021/06/21 10:59:17;;;;;;;32.70;27.53;;;20.10;99.90;;;;;;5075616;28;20939;-40
2021/06/21 11:01:47;;;;;;;34.80;25.80;;;20.00;99.90;;;;;;5077753;28;20792;-41
2021/06/21 11:04:32;;;;;;;35.93;28.37;;;19.90;99.90;;;;;;5087075;28;20479;-41
2021/06/21 11:07:15;;;;;;;29.63;21.00;;;19.80;99.90;;;;;;5086885;28;20414;-42
2021/06/21 11:09:55;;;;;;;18.30;14.70;;;19.70;99.90;;;;;;5080947;28;20497;-42
2021/06/21 11:12:21;;;;;;;15.20;11.90;;;19.60;99.90;;;;;;5081589;28;20460;-42
2021/06/21 11:15:06;;;;;;;13.83;12.20;;;19.60;99.90;;;;;;5065694;28;20414;-41
2021/06/21 11:17:33;;;;;;;13.47;11.20;;;19.50;99.90;;;;;;5085987;28;20195;-45
2021/06/21 11:20:37;;;;;;;11.47;10.27;;;19.40;99.90;;;;;;5086198;28;20836;-40
2021/06/21 11:23:06;;;;;;;12.87;10.07;;;19.30;99.90;;;;;;5086699;28;20442;-40
2021/06/21 11:25:34;;;;;;;12.70;11.40;;;19.30;99.90;;;;;;5068380;28;20925;-42
2021/06/21 11:28:00;;;;;;;12.10;11.00;;;19.10;99.90;;;;;;5077650;28;20434;-44
2021/06/21 11:30:41;;;;;;;11.13;9.50;;;19.10;99.90;;;;;;5084559;28;20513;-44
2021/06/21 11:33:10;;;;;;;9.10;8.30;;;19.10;99.90;;;;;;5086636;28;20472;-40
2021/06/21 11:36:04;;;;;;;8.00;7.30;;;19.00;99.90;;;;;;5068627;28;20961;-42
2021/06/21 11:38:36;;;;;;;7.37;6.23;;;18.90;99.90;;;;;;5078805;28;20924;-43
2021/06/21 11:41:23;;;;;;;5.97;5.33;;;18.90;99.90;;;;;;5084192;28;20448;-40
2021/06/21 11:43:54;;;;;;;7.60;6.90;;;18.90;99.90;;;;;;5078696;28;20539;-42
2021/06/21 11:46:44;;;;;;;6.40;5.80;;;18.90;99.90;;;;;;5080151;28;20414;-43
2021/06/21 11:49:19;;;;;;;5.97;5.47;;;18.90;99.90;;;;;;5082429;28;20426;-43
2021/06/21 11:52:04;;;;;;;6.00;4.60;;;18.80;99.90;;;;;;5085060;28;20438;-42
2021/06/21 11:54:38;;;;;;;4.10;3.80;;;18.90;99.90;;;;;;5070450;28;20419;-41
2021/06/21 11:57:05;;;;;;;3.40;3.10;;;18.70;99.90;;;;;;5061763;28;21213;-43
2021/06/21 11:59:37;;;;;;;3.80;3.50;;;18.70;99.90;;;;;;5063922;28;21125;-44
2021/06/21 12:02:09;;;;;;;4.53;4.13;;;18.60;99.90;;;;;;5082747;28;20783;-41
2021/06/21 12:04:35;;;;;;;6.23;5.73;;;18.60;99.90;;;;;;5081696;28;20774;-41
2021/06/21 12:07:01;;;;;;;6.60;6.10;;;18.60;99.90;;;;;;5087418;28;20551;-41
2021/06/21 12:09:27;;;;;;;7.17;6.47;;;18.60;99.90;;;;;;5085226;28;20410;-42
2021/06/21 12:11:53;;;;;;;7.47;6.97;;;18.60;99.90;;;;;;5062206;28;20438;-40
2021/06/21 12:14:22;;;;;;;8.13;7.53;;;18.60;99.90;;;;;;5082368;28;20578;-41
2021/06/21 12:16:48;;;;;;;8.23;7.53;;;18.50;99.90;;;;;;5085430;28;20761;-42
2021/06/21 12:19:13;;;;;;;7.47;6.90;;;18.40;99.90;;;;;;5083322;28;20410;-42
2021/06/21 12:21:42;;;;;;;6.03;5.63;;;18.40;99.90;;;;;;5087528;28;20410;-41
2021/06/21 12:24:21;;;;;;;5.87;5.47;;;18.30;99.90;;;;;;5067662;28;20655;-41
2021/06/21 12:26:50;;;;;;;7.10;6.60;;;18.20;99.90;;;;;;5081965;28;21021;-41
2021/06/21 12:29:19;;;;;;;6.50;6.10;;;18.20;99.90;;;;;;5063888;28;20421;-44
2021/06/21 12:31:53;;;;;;;5.40;5.10;;;18.10;99.90;;;;;;5080799;28;20417;-42
2021/06/21 12:34:49;;;;;;;6.43;5.90;;;18.00;99.90;;;;;;5085816;28;20417;-44
2021/06/21 12:37:19;;;;;;;6.07;5.67;;;18.00;99.90;;;;;;5086290;28;20442;-40
2021/06/21 12:39:48;;;;;;;5.60;5.10;;;18.00;99.90;;;;;;5083129;28;20732;-41
2021/06/21 12:42:16;;;;;;;5.57;5.07;;;18.00;99.90;;;;;;5077594;28;20494;-42
2021/06/21 12:44:43;;;;;;;5.43;5.00;;;18.00;99.90;;;;;;5085461;28;20415;-42
2021/06/21 12:47:20;;;;;;;6.17;5.67;;;17.90;99.90;;;;;;5082015;28;21141;-41
2021/06/21 12:49:46;;;;;;;6.87;6.30;;;18.00;99.90;;;;;;5084907;28;20417;-42